Time;durP1;ratioP1;P1;durP2;ratioP2;P2;SDS_P1;SDS_P2;PMS_P1;PMS_P2;Temp;Humidity;BMP_temperature;BMP_pressure;BME280_temperature;BME280_humidity;BME280_pressure;Samples;Min_cycle;Max_cycle;Signal;HPM_P1;HPM_P2
2022/08/29 00:00:40;;;;;;;0.40;0.40;;;;;;;;;;5092507;28;20016;-70
2022/08/29 00:03:07;;;;;;;0.30;0.20;;;;;;;;;;5092498;28;20024;-70
2022/08/29 00:05:35;;;;;;;0.27;0.20;;;;;;;;;;5102837;28;20509;-70
2022/08/29 00:08:02;;;;;;;1.03;0.60;;;;;;;;;;5105309;28;20028;-70
2022/08/29 00:10:29;;;;;;;0.20;0.20;;;;;;;;;;5107048;28;20562;-70
2022/08/29 00:12:56;;;;;;;1.57;0.60;;;;;;;;;;5105255;28;20441;-70
2022/08/29 00:15:23;;;;;;;1.40;1.10;;;;;;;;;;5104894;28;20488;-69
2022/08/29 00:17:50;;;;;;;6.03;0.53;;;;;;;;;;5112186;28;20047;-70
2022/08/29 00:20:19;;;;;;;0.67;0.43;;;;;;;;;;5112595;28;20035;-70
2022/08/29 00:22:46;;;;;;;5.63;0.40;;;;;;;;;;5112714;28;20028;-70
2022/08/29 00:25:14;;;;;;;1.50;0.30;;;;;;;;;;5112512;28;20139;-70
2022/08/29 00:27:41;;;;;;;0.10;0.10;;;;;;;;;;5092933;28;20024;-70
2022/08/29 00:30:08;;;;;;;0.30;0.30;;;;;;;;;;5068420;28;20391;-70
2022/08/29 00:32:35;;;;;;;0.10;0.10;;;;;;;;;;5086416;28;20502;-70
2022/08/29 00:35:03;;;;;;;0.33;0.23;;;;;;;;;;5086726;28;20108;-70
2022/08/29 00:37:30;;;;;;;0.13;0.10;;;;;;;;;;5087769;28;20359;-70
2022/08/29 00:39:57;;;;;;;0.57;0.30;;;;;;;;;;5113846;28;20055;-71
2022/08/29 00:42:23;;;;;;;0.40;0.20;;;;;;;;;;5116659;28;20024;-70
2022/08/29 00:44:50;;;;;;;0.23;0.20;;;;;;;;;;5116667;28;20027;-70
2022/08/29 00:47:19;;;;;;;2.10;0.67;;;;;;;;;;5116238;28;20024;-70
2022/08/29 00:49:49;;;;;;;0.10;0.00;;;;;;;;;;5110049;28;20024;-70
2022/08/29 00:52:21;;;;;;;0.37;0.30;;;;;;;;;;5090987;28;20031;-70
2022/08/29 00:54:50;;;;;;;0.63;0.43;;;;;;;;;;5090533;28;20020;-70
2022/08/29 00:57:19;;;;;;;0.43;0.40;;;;;;;;;;5106697;28;20062;-70
2022/08/29 00:59:47;;;;;;;1.10;0.50;;;;;;;;;;5092874;28;20435;-70
2022/08/29 01:02:15;;;;;;;0.37;0.30;;;;;;;;;;5094658;28;20032;-70
2022/08/29 01:04:42;;;;;;;1.23;0.70;;;;;;;;;;5095746;28;20024;-70
2022/08/29 01:07:09;;;;;;;0.53;0.27;;;;;;;;;;5095837;28;20024;-69
2022/08/29 01:09:37;;;;;;;1.90;0.90;;;;;;;;;;5110843;28;20482;-70
2022/08/29 01:12:18;;;;;;;5.93;0.97;;;;;;;;;;5107236;28;20043;-70
2022/08/29 01:15:12;;;;;;;5.57;1.37;;;;;;;;;;5107585;28;20040;-70
2022/08/29 01:17:43;;;;;;;1.77;0.87;;;;;;;;;;5107024;28;20063;-70
2022/08/29 01:20:32;;;;;;;1.60;1.10;;;;;;;;;;5110425;28;20016;-70
2022/08/29 01:23:11;;;;;;;2.57;1.43;;;;;;;;;;5108540;28;20023;-70
2022/08/29 01:25:40;;;;;;;0.90;0.67;;;;;;;;;;5095319;28;20429;-70
2022/08/29 01:28:11;;;;;;;2.10;1.17;;;;;;;;;;5095307;28;20020;-70
2022/08/29 01:30:56;;;;;;;1.03;0.67;;;;;;;;;;5095187;28;20397;-70
2022/08/29 01:33:22;;;;;;;2.67;1.02;;;;;;;;;;5095264;28;20020;-70
2022/08/29 01:35:49;;;;;;;2.50;0.93;;;;;;;;;;5098631;28;20066;-70
2022/08/29 01:38:26;;;;;;;7.33;1.03;;;;;;;;;;5109936;28;20047;-70
2022/08/29 01:40:58;;;;;;;7.67;0.77;;;;;;;;;;5109814;28;20068;-70
2022/08/29 01:43:26;;;;;;;0.47;0.43;;;;;;;;;;5108011;28;20085;-70
2022/08/29 01:45:53;;;;;;;0.73;0.50;;;;;;;;;;5111833;28;20073;-70
2022/08/29 01:48:20;;;;;;;1.63;1.07;;;;;;;;;;5102807;28;20848;-70
2022/08/29 01:50:47;;;;;;;1.80;0.83;;;;;;;;;;5093557;28;20115;-70
2022/08/29 01:53:14;;;;;;;0.87;0.57;;;;;;;;;;5094928;28;20028;-70
2022/08/29 01:55:41;;;;;;;1.70;0.63;;;;;;;;;;5094573;28;20052;-70
2022/08/29 01:58:09;;;;;;;0.50;0.23;;;;;;;;;;5096313;28;20023;-70
2022/08/29 02:00:36;;;;;;;0.63;0.47;;;;;;;;;;5109407;28;20020;-70
2022/08/29 02:03:02;;;;;;;0.20;0.20;;;;;;;;;;5109493;28;20028;-70
2022/08/29 02:05:29;;;;;;;0.47;0.27;;;;;;;;;;5109428;28;20020;-70
2022/08/29 02:07:57;;;;;;;0.10;0.10;;;;;;;;;;5110844;28;20019;-70
2022/08/29 02:10:23;;;;;;;0.30;0.23;;;;;;;;;;5108717;28;20036;-69
2022/08/29 02:12:51;;;;;;;0.10;0.10;;;;;;;;;;5094299;28;20482;-70
2022/08/29 02:15:18;;;;;;;0.73;0.40;;;;;;;;;;5094427;28;20031;-69
2022/08/29 02:17:45;;;;;;;0.20;0.20;;;;;;;;;;5093917;28;20196;-69
2022/08/29 02:20:12;;;;;;;0.40;0.30;;;;;;;;;;5092496;28;20020;-70
2022/08/29 02:22:39;;;;;;;0.50;0.27;;;;;;;;;;5094050;28;20030;-70
2022/08/29 02:25:40;;;;;;;6.23;0.37;;;;;;;;;;5108999;28;20081;-70
2022/08/29 02:27:53;;;;;;;1.13;0.43;;;;;;;;;;5108627;28;20038;-70
2022/08/29 02:30:20;;;;;;;0.03;0.03;;;;;;;;;;5110055;28;20032;-70
2022/08/29 02:32:47;;;;;;;0.47;0.30;;;;;;;;;;5108349;28;20386;-70
2022/08/29 02:35:14;;;;;;;0.23;0.20;;;;;;;;;;5094045;28;20032;-70
2022/08/29 02:37:41;;;;;;;0.43;0.30;;;;;;;;;;5094070;28;20104;-70
2022/08/29 02:40:08;;;;;;;0.00;0.00;;;;;;;;;;5093917;28;20020;-70
2022/08/29 02:42:35;;;;;;;0.10;0.07;;;;;;;;;;5092249;28;20111;-70
2022/08/29 02:45:02;;;;;;;0.37;0.23;;;;;;;;;;5097820;28;20039;-70
2022/08/29 02:47:28;;;;;;;0.67;0.53;;;;;;;;;;5108327;28;20060;-70
2022/08/29 02:49:55;;;;;;;1.50;0.77;;;;;;;;;;5108635;28;20055;-70
2022/08/29 02:52:22;;;;;;;5.17;0.43;;;;;;;;;;5109727;28;20024;-70
2022/08/29 02:54:48;;;;;;;1.93;0.77;;;;;;;;;;5112258;28;20049;-70
2022/08/29 02:57:15;;;;;;;0.80;0.50;;;;;;;;;;5100641;28;20073;-70
2022/08/29 02:59:43;;;;;;;2.10;0.87;;;;;;;;;;5103693;28;20031;-70
2022/08/29 03:02:09;;;;;;;0.40;0.30;;;;;;;;;;5098244;28;20382;-70
2022/08/29 03:04:36;;;;;;;2.67;0.53;;;;;;;;;;5094356;28;20476;-70
2022/08/29 03:07:04;;;;;;;0.60;0.40;;;;;;;;;;5108411;28;20024;-70
2022/08/29 03:09:31;;;;;;;0.50;0.30;;;;;;;;;;5094592;28;20038;-70
2022/08/29 03:11:57;;;;;;;0.80;0.30;;;;;;;;;;5095686;28;20034;-70
2022/08/29 03:14:24;;;;;;;0.43;0.30;;;;;;;;;;5098139;28;20489;-70
2022/08/29 03:16:51;;;;;;;0.33;0.33;;;;;;;;;;5101631;28;20103;-70
2022/08/29 03:19:18;;;;;;;0.50;0.30;;;;;;;;;;5096681;28;20177;-70
2022/08/29 03:21:46;;;;;;;0.20;0.20;;;;;;;;;;5106307;28;20032;-70
2022/08/29 03:24:13;;;;;;;0.50;0.30;;;;;;;;;;5111073;28;20024;-70
2022/08/29 03:26:39;;;;;;;0.70;0.40;;;;;;;;;;5111193;28;20208;-70
2022/08/29 03:29:06;;;;;;;1.30;0.53;;;;;;;;;;5094008;28;20040;-70
2022/08/29 03:31:34;;;;;;;0.10;0.10;;;;;;;;;;5087737;28;20544;-70
2022/08/29 03:34:00;;;;;;;0.47;0.40;;;;;;;;;;5088716;28;20373;-70
2022/08/29 03:36:28;;;;;;;1.17;0.57;;;;;;;;;;5087418;28;20035;-70
2022/08/29 03:38:55;;;;;;;0.60;0.40;;;;;;;;;;5093551;28;20028;-70
2022/08/29 03:41:26;;;;;;;0.33;0.20;;;;;;;;;;5092840;28;20025;-70
2022/08/29 03:43:57;;;;;;;1.90;1.03;;;;;;;;;;5092661;28;20024;-70
2022/08/29 03:46:24;;;;;;;0.17;0.10;;;;;;;;;;5094909;28;20034;-69
2022/08/29 03:48:51;;;;;;;9.63;0.70;;;;;;;;;;5095549;28;20035;-70
2022/08/29 03:51:18;;;;;;;1.60;0.37;;;;;;;;;;5087214;28;20024;-70
2022/08/29 03:53:48;;;;;;;0.20;0.20;;;;;;;;;;5087134;28;20056;-70
2022/08/29 03:56:15;;;;;;;1.70;0.40;;;;;;;;;;5087209;28;20132;-70
2022/08/29 03:58:42;;;;;;;1.17;0.80;;;;;;;;;;5087223;28;20032;-70
2022/08/29 04:01:09;;;;;;;0.73;0.63;;;;;;;;;;5092110;28;20055;-70
2022/08/29 04:03:36;;;;;;;1.23;0.93;;;;;;;;;;5092472;28;20016;-70
2022/08/29 04:06:02;;;;;;;0.70;0.50;;;;;;;;;;5105084;28;20129;-70
2022/08/29 04:08:29;;;;;;;0.70;0.70;;;;;;;;;;5112529;28;20023;-70
2022/08/29 04:10:56;;;;;;;1.03;0.93;;;;;;;;;;5112812;28;20058;-70
2022/08/29 04:13:22;;;;;;;0.83;0.70;;;;;;;;;;5106852;28;20019;-70
2022/08/29 04:15:49;;;;;;;3.30;0.60;;;;;;;;;;5107046;28;20026;-70
2022/08/29 04:18:16;;;;;;;0.63;0.53;;;;;;;;;;5107321;28;20106;-70
2022/08/29 04:20:43;;;;;;;0.20;0.20;;;;;;;;;;5107313;28;20035;-70
2022/08/29 04:23:11;;;;;;;1.23;0.40;;;;;;;;;;5111704;28;20034;-70
2022/08/29 04:25:38;;;;;;;0.27;0.10;;;;;;;;;;5112120;28;20095;-70
2022/08/29 04:28:06;;;;;;;0.00;0.00;;;;;;;;;;5112604;28;20471;-70
2022/08/29 04:30:32;;;;;;;6.43;0.63;;;;;;;;;;5112431;28;20470;-70
2022/08/29 04:32:59;;;;;;;0.40;0.13;;;;;;;;;;5112580;28;20473;-70
2022/08/29 04:35:26;;;;;;;0.37;0.20;;;;;;;;;;5107980;28;20429;-70
2022/08/29 04:37:53;;;;;;;0.03;0.00;;;;;;;;;;5107160;28;20019;-70
2022/08/29 04:40:21;;;;;;;0.10;0.10;;;;;;;;;;5107358;28;20028;-70
2022/08/29 04:42:47;;;;;;;0.77;0.37;;;;;;;;;;5092229;28;20027;-69
2022/08/29 04:45:16;;;;;;;0.43;0.27;;;;;;;;;;5090399;28;20058;-68
2022/08/29 04:47:43;;;;;;;0.10;0.10;;;;;;;;;;5092085;28;20073;-68
2022/08/29 04:50:13;;;;;;;0.40;0.20;;;;;;;;;;5091960;28;20453;-68
2022/08/29 04:52:41;;;;;;;1.13;0.43;;;;;;;;;;5092155;28;20024;-68
2022/08/29 04:55:09;;;;;;;0.20;0.10;;;;;;;;;;5092013;28;20048;-68
2022/08/29 04:57:37;;;;;;;0.00;0.00;;;;;;;;;;5087530;28;20032;-68
2022/08/29 05:00:05;;;;;;;0.20;0.03;;;;;;;;;;5086914;28;20207;-68
2022/08/29 05:02:31;;;;;;;0.10;0.10;;;;;;;;;;5086801;28;20027;-68
2022/08/29 05:04:58;;;;;;;2.43;0.53;;;;;;;;;;5086638;28;20587;-68
2022/08/29 05:07:26;;;;;;;0.23;0.10;;;;;;;;;;5090043;28;20077;-68
2022/08/29 05:10:00;;;;;;;0.57;0.30;;;;;;;;;;5091880;28;20020;-68
2022/08/29 05:12:32;;;;;;;0.00;0.00;;;;;;;;;;5091718;28;20016;-68
2022/08/29 05:14:59;;;;;;;0.00;0.00;;;;;;;;;;5091885;28;20442;-68
2022/08/29 05:17:26;;;;;;;0.00;0.00;;;;;;;;;;5091813;28;20024;-67
2022/08/29 05:19:53;;;;;;;0.23;0.10;;;;;;;;;;5087777;28;20097;-68
2022/08/29 05:22:20;;;;;;;0.00;0.00;;;;;;;;;;5086661;28;20445;-68
2022/08/29 05:24:48;;;;;;;0.00;0.00;;;;;;;;;;5087007;28;20024;-67
2022/08/29 05:27:16;;;;;;;0.10;0.10;;;;;;;;;;5089969;28;20023;-65
2022/08/29 05:29:44;;;;;;;0.10;0.00;;;;;;;;;;5091253;28;20034;-64
2022/08/29 05:32:13;;;;;;;0.30;0.10;;;;;;;;;;5095297;28;20036;-64
2022/08/29 05:34:41;;;;;;;0.20;0.20;;;;;;;;;;5083187;28;20026;-63
2022/08/29 05:37:09;;;;;;;0.33;0.10;;;;;;;;;;5109911;28;20024;-64
2022/08/29 05:39:37;;;;;;;0.00;0.00;;;;;;;;;;5095006;28;20051;-64
2022/08/29 05:42:04;;;;;;;0.30;0.23;;;;;;;;;;5091257;28;20059;-67
2022/08/29 05:44:31;;;;;;;0.33;0.13;;;;;;;;;;5108396;28;20373;-66
2022/08/29 05:46:58;;;;;;;0.20;0.10;;;;;;;;;;5099061;28;20115;-67
2022/08/29 05:49:26;;;;;;;0.40;0.07;;;;;;;;;;5109523;28;20059;-66
2022/08/29 05:51:56;;;;;;;0.00;0.00;;;;;;;;;;5113082;28;20024;-67
2022/08/29 05:54:25;;;;;;;0.60;0.27;;;;;;;;;;5114933;28;20375;-63
2022/08/29 05:56:51;;;;;;;0.00;0.00;;;;;;;;;;5115082;28;20027;-64
2022/08/29 05:59:19;;;;;;;0.10;0.10;;;;;;;;;;5099736;28;20025;-67
2022/08/29 06:01:46;;;;;;;0.20;0.10;;;;;;;;;;5099657;28;20035;-67
2022/08/29 06:04:13;;;;;;;0.07;0.07;;;;;;;;;;5095227;28;20027;-67
2022/08/29 06:06:40;;;;;;;0.30;0.20;;;;;;;;;;5089302;28;20028;-67
2022/08/29 06:09:07;;;;;;;0.00;0.00;;;;;;;;;;5089132;28;20050;-67
2022/08/29 06:11:34;;;;;;;0.00;0.00;;;;;;;;;;5089283;28;20731;-67
2022/08/29 06:14:04;;;;;;;0.50;0.30;;;;;;;;;;5091401;28;20031;-66
2022/08/29 06:16:31;;;;;;;0.00;0.00;;;;;;;;;;5108077;28;20028;-67
2022/08/29 06:18:58;;;;;;;0.03;0.03;;;;;;;;;;5100393;28;20101;-67
2022/08/29 06:21:25;;;;;;;0.00;0.00;;;;;;;;;;5102233;28;20015;-66
2022/08/29 06:23:51;;;;;;;0.37;0.17;;;;;;;;;;5097874;28;20483;-67
2022/08/29 06:26:18;;;;;;;0.73;0.30;;;;;;;;;;5077951;28;20034;-67
2022/08/29 06:28:45;;;;;;;0.90;0.27;;;;;;;;;;5109018;28;20497;-66
2022/08/29 06:31:19;;;;;;;0.10;0.10;;;;;;;;;;5108359;28;20098;-66
2022/08/29 06:33:46;;;;;;;0.40;0.30;;;;;;;;;;5108896;28;20522;-67
2022/08/29 06:36:13;;;;;;;0.57;0.30;;;;;;;;;;5110746;28;20096;-67
2022/08/29 06:38:40;;;;;;;1.30;0.30;;;;;;;;;;5100236;28;20028;-66
2022/08/29 06:41:10;;;;;;;1.60;0.43;;;;;;;;;;5109896;28;20019;-67
2022/08/29 06:43:36;;;;;;;0.60;0.50;;;;;;;;;;5114298;28;20116;-66
2022/08/29 06:46:03;;;;;;;0.00;0.00;;;;;;;;;;5111864;28;20034;-67
2022/08/29 06:48:30;;;;;;;0.30;0.23;;;;;;;;;;5079522;28;20051;-67
2022/08/29 06:50:57;;;;;;;0.97;0.33;;;;;;;;;;5071878;28;20036;-67
2022/08/29 06:53:25;;;;;;;0.03;0.03;;;;;;;;;;5088339;28;20052;-67
2022/08/29 06:55:52;;;;;;;0.13;0.13;;;;;;;;;;5089859;28;20030;-67
2022/08/29 06:58:19;;;;;;;0.93;0.30;;;;;;;;;;5110888;28;20020;-67
2022/08/29 07:00:45;;;;;;;0.20;0.20;;;;;;;;;;5113580;28;20472;-66
2022/08/29 07:03:12;;;;;;;0.30;0.30;;;;;;;;;;5113075;28;20427;-66
2022/08/29 07:05:39;;;;;;;0.20;0.20;;;;;;;;;;5113532;28;20043;-67
2022/08/29 07:08:05;;;;;;;0.67;0.47;;;;;;;;;;5113341;28;20097;-67
2022/08/29 07:10:32;;;;;;;0.20;0.10;;;;;;;;;;5074416;28;20055;-67
2022/08/29 07:12:59;;;;;;;0.70;0.60;;;;;;;;;;5088018;28;20494;-67
2022/08/29 07:15:25;;;;;;;2.40;0.63;;;;;;;;;;5087987;28;20502;-67
2022/08/29 07:17:52;;;;;;;0.20;0.20;;;;;;;;;;5100188;28;20028;-67
2022/08/29 07:20:19;;;;;;;1.17;0.87;;;;;;;;;;5089250;28;20034;-66
2022/08/29 07:22:50;;;;;;;1.53;0.40;;;;;;;;;;5093355;28;20043;-67
2022/08/29 07:25:16;;;;;;;0.97;0.53;;;;;;;;;;5108832;28;20024;-67
2022/08/29 07:27:43;;;;;;;0.30;0.30;;;;;;;;;;5110015;28;20035;-67
2022/08/29 07:30:10;;;;;;;0.70;0.70;;;;;;;;;;5094175;28;20466;-66
2022/08/29 07:32:37;;;;;;;1.33;0.73;;;;;;;;;;5091088;28;20031;-67
2022/08/29 07:35:03;;;;;;;0.27;0.23;;;;;;;;;;5087400;28;20067;-66
2022/08/29 07:37:30;;;;;;;0.43;0.20;;;;;;;;;;5087630;28;20107;-66
2022/08/29 07:39:57;;;;;;;0.77;0.43;;;;;;;;;;5089672;28;20242;-67
2022/08/29 07:42:23;;;;;;;0.43;0.20;;;;;;;;;;5088324;28;20069;-67
2022/08/29 07:44:50;;;;;;;1.43;0.50;;;;;;;;;;5092844;28;20024;-66
2022/08/29 07:47:17;;;;;;;0.20;0.20;;;;;;;;;;5107364;28;20025;-66
2022/08/29 07:49:44;;;;;;;0.00;0.00;;;;;;;;;;5109933;28;20034;-66
2022/08/29 07:52:10;;;;;;;0.00;0.00;;;;;;;;;;5092934;28;20090;-67
2022/08/29 07:54:37;;;;;;;0.30;0.23;;;;;;;;;;5110060;28;20019;-69
2022/08/29 07:57:04;;;;;;;0.20;0.10;;;;;;;;;;5087219;28;20051;-67
2022/08/29 07:59:31;;;;;;;0.10;0.10;;;;;;;;;;5088223;28;20024;-66
2022/08/29 08:01:57;;;;;;;0.40;0.30;;;;;;;;;;5087237;28;20115;-67
2022/08/29 08:04:24;;;;;;;0.00;0.00;;;;;;;;;;5087349;28;20063;-66
2022/08/29 08:06:51;;;;;;;0.20;0.20;;;;;;;;;;5092533;28;20085;-67
2022/08/29 08:09:17;;;;;;;0.10;0.10;;;;;;;;;;5092941;28;20032;-67
2022/08/29 08:11:44;;;;;;;0.17;0.17;;;;;;;;;;5097610;28;20102;-67
2022/08/29 08:14:11;;;;;;;0.30;0.20;;;;;;;;;;5112439;28;20042;-66
2022/08/29 08:16:38;;;;;;;0.30;0.20;;;;;;;;;;5110597;28;20015;-66
2022/08/29 08:19:04;;;;;;;0.33;0.20;;;;;;;;;;5107387;28;20533;-67
2022/08/29 08:21:31;;;;;;;0.20;0.20;;;;;;;;;;5105550;28;20759;-67
2022/08/29 08:23:58;;;;;;;1.27;0.30;;;;;;;;;;5089660;28;20024;-66
2022/08/29 08:26:25;;;;;;;0.10;0.10;;;;;;;;;;5086634;28;20039;-67
2022/08/29 08:28:52;;;;;;;0.33;0.33;;;;;;;;;;5091700;28;20462;-66
2022/08/29 08:31:19;;;;;;;0.13;0.13;;;;;;;;;;5092443;28;20391;-67
2022/08/29 08:33:46;;;;;;;0.10;0.10;;;;;;;;;;5112517;28;20562;-66
2022/08/29 08:36:13;;;;;;;1.47;0.60;;;;;;;;;;5112689;28;20024;-66
2022/08/29 08:38:40;;;;;;;0.50;0.30;;;;;;;;;;5112208;28;20020;-66
2022/08/29 08:41:09;;;;;;;0.67;0.60;;;;;;;;;;5104735;28;20020;-67
2022/08/29 08:43:44;;;;;;;0.37;0.30;;;;;;;;;;5086800;28;20052;-67
2022/08/29 08:46:11;;;;;;;0.22;0.20;;;;;;;;;;5086746;28;20024;-66
2022/08/29 08:48:39;;;;;;;0.10;0.10;;;;;;;;;;5104752;28;20023;-66
2022/08/29 08:51:05;;;;;;;0.87;0.40;;;;;;;;;;5111993;28;20031;-66
2022/08/29 08:53:35;;;;;;;0.03;0.03;;;;;;;;;;5109989;28;20027;-66
2022/08/29 08:56:20;;;;;;;1.33;0.30;;;;;;;;;;5109961;28;20020;-66
2022/08/29 08:58:53;;;;;;;1.88;0.47;;;;;;;;;;5082970;28;20027;-67
2022/08/29 09:01:30;;;;;;;0.20;0.20;;;;;;;;;;5094161;28;20020;-67
2022/08/29 09:04:16;;;;;;;0.20;0.20;;;;;;;;;;5090389;28;20027;-66
2022/08/29 09:06:58;;;;;;;0.17;0.17;;;;;;;;;;5090566;28;20073;-65
2022/08/29 09:09:27;;;;;;;0.20;0.20;;;;;;;;;;5097149;28;20390;-65
2022/08/29 09:12:06;;;;;;;0.47;0.40;;;;;;;;;;5112087;28;20068;-65
2022/08/29 09:14:38;;;;;;;0.53;0.30;;;;;;;;;;5115780;28;20035;-65
2022/08/29 09:17:07;;;;;;;1.67;0.63;;;;;;;;;;5116036;28;20028;-65
2022/08/29 14:35:09;;;;;;;0.20;0.20;;;;;;;;;;5094077;28;20093;-67
2022/08/29 14:37:37;;;;;;;1.03;0.90;;;;;;;;;;5106537;28;20470;-68
2022/08/29 14:40:08;;;;;;;1.30;0.70;;;;;;;;;;5091563;28;20502;-65
2022/08/29 14:42:35;;;;;;;1.20;0.67;;;;;;;;;;5082917;28;20103;-63
2022/08/29 14:45:02;;;;;;;0.73;0.50;;;;;;;;;;5088393;28;20035;-67
2022/08/29 14:47:29;;;;;;;0.50;0.43;;;;;;;;;;5077041;28;20028;-67
2022/08/29 14:50:02;;;;;;;1.53;0.93;;;;;;;;;;5090579;28;20062;-67
2022/08/29 15:04:45;;;;;;;5.43;0.90;;;;;;;;;;5087981;28;20089;-67
2022/08/29 15:07:12;;;;;;;3.60;0.83;;;;;;;;;;5088096;28;20028;-68
2022/08/29 15:09:40;;;;;;;1.00;0.57;;;;;;;;;;5092608;28;20034;-67
2022/08/29 15:12:07;;;;;;;1.17;0.77;;;;;;;;;;5093187;28;20024;-67
2022/08/29 15:14:34;;;;;;;1.00;0.57;;;;;;;;;;5093425;28;20111;-68
2022/08/29 15:17:01;;;;;;;3.70;1.17;;;;;;;;;;5093363;28;20016;-67
2022/08/29 15:19:28;;;;;;;0.40;0.40;;;;;;;;;;5093177;28;20020;-68
2022/08/29 15:21:55;;;;;;;1.23;0.60;;;;;;;;;;5088623;28;20118;-68
2022/08/29 15:24:22;;;;;;;3.10;0.93;;;;;;;;;;5088090;28;20028;-68
2022/08/29 15:26:48;;;;;;;1.40;0.63;;;;;;;;;;5087909;28;20028;-67
2022/08/29 15:29:15;;;;;;;0.80;0.60;;;;;;;;;;5087494;28;20502;-67
2022/08/29 15:31:42;;;;;;;2.60;0.80;;;;;;;;;;5091814;28;20035;-68
2022/08/29 15:34:08;;;;;;;2.40;1.03;;;;;;;;;;5093238;28;20023;-68
2022/08/29 15:36:35;;;;;;;0.70;0.50;;;;;;;;;;5092832;28;20065;-69
2022/08/29 15:39:04;;;;;;;1.13;0.90;;;;;;;;;;5092925;28;20364;-68
2022/08/29 15:41:34;;;;;;;0.97;0.60;;;;;;;;;;5092895;28;20028;-68
2022/08/29 15:44:04;;;;;;;1.17;0.73;;;;;;;;;;5088257;28;20551;-68
2022/08/29 15:46:30;;;;;;;1.70;0.83;;;;;;;;;;5078543;28;20149;-68
2022/08/29 17:18:16;;;;;;;0.15;0.15;;;;;;;;;;5106899;28;20044;-67
2022/08/29 17:20:47;;;;;;;0.52;0.45;;;;;;;;;;5087498;28;20012;-67
2022/08/29 17:23:17;;;;;;;0.77;0.60;;;;;;;;;;5095263;28;20035;-67
2022/08/29 17:25:44;;;;;;;1.23;0.65;;;;;;;;;;5114091;28;20084;-67
2022/08/29 17:28:11;;;;;;;1.10;0.55;;;;;;;;;;5115423;28;20430;-67
2022/08/29 17:30:37;;;;;;;0.47;0.40;;;;;;;;;;5115403;28;20375;-67
2022/08/29 17:33:04;;;;;;;2.17;0.57;;;;;;;;;;5103131;28;20060;-67
2022/08/29 17:35:31;;;;;;;0.60;0.50;;;;;;;;;;5090495;28;20065;-67
2022/08/29 17:37:58;;;;;;;0.47;0.40;;;;;;;;;;5101853;28;20503;-67
2022/08/29 17:40:25;;;;;;;0.22;0.20;;;;;;;;;;5109941;28;20781;-68
2022/08/29 17:42:51;;;;;;;7.97;1.80;;;;;;;;;;5109911;28;20031;-66
2022/08/29 17:45:18;;;;;;;1.40;0.65;;;;;;;;;;5096153;28;20050;-67
2022/08/29 17:47:45;;;;;;;0.55;0.40;;;;;;;;;;5097246;28;20021;-68
2022/08/29 17:50:12;;;;;;;0.75;0.38;;;;;;;;;;5083353;28;20085;-68
2022/08/29 17:52:40;;;;;;;0.82;0.60;;;;;;;;;;5083204;28;20020;-68
2022/08/29 17:55:08;;;;;;;0.98;0.57;;;;;;;;;;5099371;28;20023;-68
2022/08/29 17:57:39;;;;;;;1.17;0.55;;;;;;;;;;5096208;28;20077;-67
2022/08/29 18:00:14;;;;;;;1.52;0.95;;;;;;;;;;5089647;28;20028;-67
2022/08/29 18:02:42;;;;;;;2.60;1.40;;;;;;;;;;5106342;28;20055;-67
2022/08/29 18:05:11;;;;;;;1.58;0.93;;;;;;;;;;5102057;28;20024;-67
2022/08/29 18:07:50;;;;;;;0.98;0.60;;;;;;;;;;5098393;28;20119;-67
2022/08/29 18:10:23;;;;;;;0.45;0.30;;;;;;;;;;5114908;28;20035;-67
2022/08/29 18:12:54;;;;;;;0.57;0.45;;;;;;;;;;5094980;28;20030;-67
2022/08/29 18:15:25;;;;;;;1.02;0.60;;;;;;;;;;5094477;28;20490;-67
2022/08/29 18:17:55;;;;;;;2.30;0.80;;;;;;;;;;5099452;28;20028;-67
2022/08/29 18:20:27;;;;;;;3.10;0.40;;;;;;;;;;5089221;28;20039;-67
2022/08/29 18:23:07;;;;;;;1.52;0.60;;;;;;;;;;5065279;28;20039;-67
2022/08/29 18:25:41;;;;;;;0.68;0.50;;;;;;;;;;5089067;28;20497;-67
2022/08/29 18:28:08;;;;;;;2.53;0.88;;;;;;;;;;5093045;28;20378;-67
2022/08/29 18:30:39;;;;;;;0.47;0.32;;;;;;;;;;5093655;28;20448;-67
2022/08/29 18:33:11;;;;;;;1.60;0.55;;;;;;;;;;5093162;28;20558;-67
2022/08/29 18:35:42;;;;;;;0.60;0.30;;;;;;;;;;5093995;28;20020;-67
2022/08/29 18:38:13;;;;;;;0.90;0.60;;;;;;;;;;5102744;28;20046;-67
2022/08/29 18:40:40;;;;;;;0.90;0.28;;;;;;;;;;5114045;28;20434;-67
2022/08/29 18:43:15;;;;;;;0.88;0.57;;;;;;;;;;5100346;28;20024;-67
2022/08/29 18:45:46;;;;;;;0.52;0.43;;;;;;;;;;5088813;28;20031;-68
2022/08/29 18:48:13;;;;;;;1.35;0.60;;;;;;;;;;5097660;28;20055;-67
2022/08/29 18:50:51;;;;;;;0.60;0.45;;;;;;;;;;5109048;28;20766;-68
2022/08/29 18:53:25;;;;;;;0.90;0.50;;;;;;;;;;5099670;28;20028;-67
2022/08/29 18:55:56;;;;;;;2.10;0.65;;;;;;;;;;5109031;28;20103;-67
2022/08/29 18:58:43;;;;;;;2.45;0.73;;;;;;;;;;5103935;28;20474;-67
2022/08/29 19:01:23;;;;;;;1.25;0.75;;;;;;;;;;5096917;28;20054;-67
2022/08/29 19:03:54;;;;;;;0.47;0.40;;;;;;;;;;5109777;28;20019;-66
2022/08/29 19:06:25;;;;;;;1.10;0.50;;;;;;;;;;5108354;28;20024;-67
2022/08/29 19:08:52;;;;;;;0.40;0.40;;;;;;;;;;5094221;28;20039;-67
2022/08/29 19:11:23;;;;;;;0.75;0.40;;;;;;;;;;5088341;28;20119;-67
2022/08/29 19:16:42;;;;;;;0.40;0.40;;;;;;;;;;5093334;28;20032;-67
2022/08/29 19:19:09;;;;;;;0.50;0.20;;;;;;;;;;5112804;28;20038;-68
2022/08/29 19:21:37;;;;;;;0.40;0.20;;;;;;;;;;5072984;28;20033;-67
2022/08/29 19:24:11;;;;;;;0.57;0.40;;;;;;;;;;5105237;28;20547;-67
2022/08/29 19:26:42;;;;;;;0.90;0.60;;;;;;;;;;5091983;28;20024;-67
2022/08/29 19:29:15;;;;;;;0.77;0.40;;;;;;;;;;5088756;28;20064;-67
2022/08/29 19:31:45;;;;;;;0.57;0.38;;;;;;;;;;5087842;28;20099;-68
2022/08/29 19:34:16;;;;;;;0.60;0.57;;;;;;;;;;5106089;28;20036;-67
2022/08/29 19:36:43;;;;;;;0.68;0.40;;;;;;;;;;5093263;28;20063;-67
2022/08/29 19:39:11;;;;;;;0.68;0.45;;;;;;;;;;5096634;28;20035;-67
2022/08/29 19:41:42;;;;;;;3.97;0.70;;;;;;;;;;5099200;28;20032;-67
2022/08/29 19:44:09;;;;;;;0.85;0.50;;;;;;;;;;5109071;28;20059;-68
2022/08/29 19:46:40;;;;;;;0.60;0.40;;;;;;;;;;5109194;28;20028;-68
2022/08/29 19:49:07;;;;;;;2.45;0.85;;;;;;;;;;5073433;28;20031;-67
2022/08/29 19:51:41;;;;;;;0.98;0.50;;;;;;;;;;5068385;28;20526;-67
2022/08/29 19:54:12;;;;;;;1.45;0.55;;;;;;;;;;5087424;28;20027;-67
2022/08/29 19:56:45;;;;;;;0.73;0.57;;;;;;;;;;5078079;28;20032;-67
2022/08/29 19:59:13;;;;;;;0.63;0.32;;;;;;;;;;5106860;28;20024;-67
2022/08/29 20:01:44;;;;;;;1.95;0.55;;;;;;;;;;5099396;28;20020;-67
2022/08/29 20:04:12;;;;;;;1.85;0.60;;;;;;;;;;5092234;28;20348;-68
2022/08/29 20:06:42;;;;;;;1.58;0.60;;;;;;;;;;5104025;28;20027;-67
2022/08/29 20:09:13;;;;;;;0.55;0.40;;;;;;;;;;5112550;28;20031;-68
2022/08/29 20:11:53;;;;;;;0.63;0.55;;;;;;;;;;5108926;28;20409;-68
2022/08/29 20:14:28;;;;;;;0.73;0.60;;;;;;;;;;5088270;28;20074;-67
2022/08/29 20:17:01;;;;;;;0.85;0.57;;;;;;;;;;5100089;28;20051;-67
2022/08/29 20:19:30;;;;;;;2.63;1.00;;;;;;;;;;5107197;28;20084;-65
2022/08/29 20:22:00;;;;;;;0.98;0.43;;;;;;;;;;5111493;28;20077;-67
2022/08/29 20:24:45;;;;;;;1.02;0.50;;;;;;;;;;5112883;28;20212;-66
2022/08/29 20:27:18;;;;;;;2.08;0.75;;;;;;;;;;5096446;28;20028;-66
2022/08/29 20:29:55;;;;;;;4.57;0.98;;;;;;;;;;5092009;28;20059;-66
2022/08/29 20:32:25;;;;;;;1.10;0.70;;;;;;;;;;5098672;28;20078;-67
2022/08/29 20:34:53;;;;;;;0.45;0.30;;;;;;;;;;5090545;28;20055;-69
2022/08/29 20:37:24;;;;;;;0.90;0.40;;;;;;;;;;5069078;28;20386;-69
2022/08/29 20:39:55;;;;;;;1.15;0.55;;;;;;;;;;5087091;28;20479;-68
2022/08/29 20:42:32;;;;;;;0.98;0.60;;;;;;;;;;5086722;28;20421;-69
2022/08/29 20:44:59;;;;;;;0.40;0.40;;;;;;;;;;5108025;28;20028;-68
2022/08/29 20:47:35;;;;;;;0.63;0.47;;;;;;;;;;5109076;28;20081;-67
2022/08/29 20:50:07;;;;;;;0.30;0.30;;;;;;;;;;5091603;28;20060;-65
2022/08/29 20:52:39;;;;;;;7.20;0.77;;;;;;;;;;5097697;28;20024;-68
2022/08/29 20:55:07;;;;;;;0.85;0.45;;;;;;;;;;5101166;28;20430;-69
2022/08/29 20:57:42;;;;;;;0.60;0.43;;;;;;;;;;5092445;28;20020;-63
2022/08/29 21:00:25;;;;;;;4.15;0.73;;;;;;;;;;5090948;28;20036;-66
2022/08/29 21:05:50;;;;;;;4.63;0.77;;;;;;;;;;5082526;28;20132;-66
2022/08/29 21:08:26;;;;;;;0.98;0.60;;;;;;;;;;5095871;28;20024;-66
2022/08/29 21:11:04;;;;;;;1.38;0.60;;;;;;;;;;5095808;28;20123;-67
2022/08/29 21:13:34;;;;;;;0.90;0.65;;;;;;;;;;5097955;28;20019;-68
2022/08/29 21:16:16;;;;;;;4.63;0.68;;;;;;;;;;5115376;28;20478;-65
2022/08/29 21:19:08;;;;;;;1.42;0.40;;;;;;;;;;5107027;28;20021;-66
2022/08/29 21:21:50;;;;;;;0.47;0.30;;;;;;;;;;5090503;28;20020;-66
2022/08/29 21:24:19;;;;;;;2.33;0.68;;;;;;;;;;5091127;28;20031;-63
2022/08/29 21:27:05;;;;;;;;;;;;;;;;;;;;;
2022/08/29 21:32:53;;;;;;;6.63;1.05;;;;;;;;;;5080853;28;20039;-62
2022/08/29 21:35:42;;;;;;;0.70;0.50;;;;;;;;;;5096282;28;20031;-64
2022/08/29 21:38:12;;;;;;;0.40;0.20;;;;;;;;;;5076150;28;20114;-63
2022/08/29 21:40:57;;;;;;;0.63;0.50;;;;;;;;;;5073065;28;20033;-63
2022/08/29 21:43:38;;;;;;;0.70;0.43;;;;;;;;;;5089892;28;20483;-63
2022/08/29 21:46:27;;;;;;;1.15;0.50;;;;;;;;;;5089888;28;20060;-63
2022/08/29 21:49:20;;;;;;;0.60;0.30;;;;;;;;;;5094607;28;20110;-63
2022/08/29 21:54:51;;;;;;;1.00;0.55;;;;;;;;;;5087138;28;20036;-64
2022/08/29 22:00:17;;;;;;;0.50;0.50;;;;;;;;;;5094881;28;20124;-64
2022/08/29 22:02:48;;;;;;;0.47;0.40;;;;;;;;;;5093735;28;20063;-65
2022/08/29 22:05:19;;;;;;;0.75;0.40;;;;;;;;;;5089595;28;20051;-64
2022/08/29 22:07:53;;;;;;;12.35;0.57;;;;;;;;;;5071410;28;20112;-64